Time;durP1;ratioP1;P1;durP2;ratioP2;P2;SDS_P1;SDS_P2;PMS_P1;PMS_P2;Temp;Humidity;BMP_temperature;BMP_pressure;BME280_temperature;BME280_humidity;BME280_pressure;Samples;Min_cycle;Max_cycle;Signal;HPM_P1;HPM_P2
2022/04/02 00:00:17;;;;;;;;;;;;;;;0.42;82.07;99152.89;89844;1271;95617;-70
2022/04/02 00:02:45;;;;;;;;;;;;;;;0.46;82.05;99147.89;89869;1271;80868;-73
2022/04/02 00:04:55;;;;;;;;;;;;;;;0.48;82.11;99150.48;89865;1271;80180;-73
2022/04/02 00:07:05;;;;;;;;;;;;;;;0.48;81.96;99145.92;89869;1271;97607;-71
2022/04/02 00:09:12;;;;;;;;;;;;;;;0.50;81.92;99146.08;89868;1271;87581;-70
2022/04/02 00:11:19;;;;;;;;;;;;;;;0.55;81.64;99142.49;89858;1271;94703;-73
2022/04/02 00:13:26;;;;;;;;;;;;;;;0.60;81.72;99141.48;89864;1271;78996;-73
2022/04/02 00:15:33;;;;;;;;;;;;;;;0.58;81.78;99144.14;89870;1270;79933;-73
2022/04/02 00:17:43;;;;;;;;;;;;;;;0.60;81.55;99139.34;89859;1271;99198;-74
2022/04/02 00:19:50;;;;;;;;;;;;;;;0.62;81.61;99139.31;89866;1271;88514;-73
2022/04/02 00:21:57;;;;;;;;;;;;;;;0.60;81.46;99141.59;89857;1271;95571;-73
2022/04/02 00:24:04;;;;;;;;;;;;;;;0.54;81.41;99143.67;89856;1271;77327;-73
2022/04/02 00:26:15;;;;;;;;;;;;;;;0.48;81.43;99138.27;89868;1271;81368;-73
2022/04/02 00:28:22;;;;;;;;;;;;;;;0.43;81.44;99135.41;89862;1271;97607;-72
2022/04/02 00:30:32;;;;;;;;;;;;;;;0.40;81.44;99133.23;89872;1271;88082;-70
2022/04/02 00:32:42;;;;;;;;;;;;;;;0.41;81.34;99133.53;89852;1271;95132;-70
2022/04/02 00:34:50;;;;;;;;;;;;;;;0.36;81.46;99130.71;89848;1271;78157;-70
2022/04/02 00:37:00;;;;;;;;;;;;;;;0.29;81.52;99130.92;89870;1271;82309;-70
2022/04/02 00:39:08;;;;;;;;;;;;;;;0.24;81.48;99130.89;89840;1271;98310;-70
2022/04/02 00:41:16;;;;;;;;;;;;;;;0.20;81.38;99129.17;89839;1271;88985;-73
2022/04/02 00:43:28;;;;;;;;;;;;;;;0.15;81.41;99130.60;89864;1271;94184;-73
2022/04/02 00:45:37;;;;;;;;;;;;;;;0.13;81.52;99132.52;89862;1271;76374;-71
2022/04/02 00:47:44;;;;;;;;;;;;;;;0.08;81.54;99135.98;89875;1271;81355;-70
2022/04/02 00:49:53;;;;;;;;;;;;;;;0.03;81.64;99139.02;89856;1271;98783;-70
2022/04/02 00:52:00;;;;;;;;;;;;;;;0.03;81.69;99138.30;89879;1271;87065;-72
2022/04/02 00:54:08;;;;;;;;;;;;;;;0.05;81.56;99136.66;89856;1271;94690;-71
2022/04/02 00:56:16;;;;;;;;;;;;;;;0.03;81.71;99143.27;89851;1271;79155;-73
2022/04/02 00:58:23;;;;;;;;;;;;;;;0.02;81.97;99139.67;89850;1271;83388;-73
2022/04/02 01:00:30;;;;;;;;;;;;;;;0.02;81.70;99136.80;89854;1271;98831;-70
2022/04/02 01:02:37;;;;;;;;;;;;;;;0.00;81.99;99139.27;89865;1271;89248;-71
2022/04/02 01:04:44;;;;;;;;;;;;;;;0.04;81.75;99138.06;89830;1273;95870;-71
2022/04/02 01:06:52;;;;;;;;;;;;;;;0.07;81.74;99140.95;89852;1270;79182;-71
2022/04/02 01:09:00;;;;;;;;;;;;;;;0.11;81.82;99138.88;89866;1271;82710;-71
2022/04/02 01:11:08;;;;;;;;;;;;;;;0.16;81.66;99140.54;89858;1271;99207;-71
2022/04/02 01:13:16;;;;;;;;;;;;;;;0.15;81.70;99138.35;89866;1271;87509;-71
2022/04/02 01:15:24;;;;;;;;;;;;;;;0.15;81.89;99139.98;89826;1274;94996;-71
2022/04/02 01:17:31;;;;;;;;;;;;;;;0.15;81.81;99138.89;89850;1271;79329;-71
2022/04/02 01:19:42;;;;;;;;;;;;;;;0.15;81.91;99140.84;89874;1271;80815;-71
2022/04/02 01:21:50;;;;;;;;;;;;;;;0.18;81.75;99138.70;89864;1271;97948;-71
2022/04/02 01:23:57;;;;;;;;;;;;;;;0.21;81.81;99142.35;89861;1271;88106;-71
2022/04/02 01:26:08;;;;;;;;;;;;;;;0.23;81.70;99138.89;89857;1271;93202;-74
2022/04/02 01:28:15;;;;;;;;;;;;;;;0.22;81.65;99140.64;89859;1271;80496;-74
2022/04/02 01:30:22;;;;;;;;;;;;;;;0.25;81.78;99136.59;89782;1274;84043;-72
2022/04/02 01:32:32;;;;;;;;;;;;;;;0.24;81.66;99134.08;89825;1274;99537;-73
2022/04/02 01:34:42;;;;;;;;;;;;;;;0.22;81.67;99135.46;89851;1271;87994;-70
2022/04/02 01:36:49;;;;;;;;;;;;;;;0.24;81.43;99137.94;89808;1272;95528;-74
2022/04/02 01:38:56;;;;;;;;;;;;;;;0.24;81.53;99135.45;89808;1274;79455;-74
2022/04/02 01:41:06;;;;;;;;;;;;;;;0.20;81.40;99138.13;89871;1271;81049;-74
2022/04/02 01:43:16;;;;;;;;;;;;;;;0.16;81.35;99138.91;89884;1271;98301;-74
2022/04/02 01:45:23;;;;;;;;;;;;;;;0.15;81.49;99142.43;89879;1270;86843;-74
2022/04/02 01:47:30;;;;;;;;;;;;;;;0.10;81.43;99140.48;89856;1269;92605;-74
2022/04/02 01:49:37;;;;;;;;;;;;;;;0.05;81.52;99144.85;89854;1271;79261;-74
2022/04/02 01:51:47;;;;;;;;;;;;;;;0.03;81.27;99145.59;89878;1271;82679;-74
2022/04/02 01:53:57;;;;;;;;;;;;;;;0.02;81.37;99144.13;89872;1271;99302;-75
2022/04/02 01:56:10;;;;;;;;;;;;;;;-0.04;81.40;99144.71;89871;1271;87656;-75
2022/04/02 01:58:17;;;;;;;;;;;;;;;-0.14;81.36;99142.66;89878;1271;94393;-74
2022/04/02 02:00:27;;;;;;;;;;;;;;;-0.18;81.54;99144.68;89877;1271;76084;-74
2022/04/02 02:02:34;;;;;;;;;;;;;;;-0.23;81.39;99147.27;89881;1271;79827;-75
2022/04/02 02:04:44;;;;;;;;;;;;;;;-0.27;81.57;99149.99;89882;1271;95407;-75
2022/04/02 02:06:51;;;;;;;;;;;;;;;-0.30;81.55;99147.12;89875;1271;87968;-70
2022/04/02 02:08:58;;;;;;;;;;;;;;;-0.29;81.57;99144.95;89865;1271;95658;-70
2022/04/02 02:11:05;;;;;;;;;;;;;;;-0.32;81.63;99148.86;89870;1271;76952;-69
2022/04/02 02:13:12;;;;;;;;;;;;;;;-0.34;81.76;99147.21;89875;1270;82985;-70
2022/04/02 02:15:22;;;;;;;;;;;;;;;-0.39;81.67;99148.91;89861;1271;97841;-70
2022/04/02 02:17:32;;;;;;;;;;;;;;;-0.42;82.03;99148.16;89825;1273;88006;-70
2022/04/02 02:19:39;;;;;;;;;;;;;;;-0.41;81.88;99147.16;89864;1271;93526;-70
2022/04/02 02:21:49;;;;;;;;;;;;;;;-0.39;81.86;99141.70;89858;1271;79150;-76
2022/04/02 02:23:58;;;;;;;;;;;;;;;-0.37;81.76;99147.09;89870;1271;81853;-74
2022/04/02 02:26:05;;;;;;;;;;;;;;;-0.34;82.02;99146.66;89871;1271;99647;-70
2022/04/02 02:28:16;;;;;;;;;;;;;;;-0.32;82.15;99146.97;89859;1271;89365;-69
2022/04/02 02:30:23;;;;;;;;;;;;;;;-0.31;82.05;99144.23;89852;1271;93482;-70
2022/04/02 02:32:36;;;;;;;;;;;;;;;-0.26;81.85;99146.73;89851;1271;81918;-70
2022/04/02 02:37:13;;;;;;;;;;;;;;;-0.21;81.88;99145.85;89860;1271;97761;-70
2022/04/02 02:39:20;;;;;;;;;;;;;;;-0.17;81.78;99146.19;89852;1271;89066;-70
2022/04/02 02:41:27;;;;;;;;;;;;;;;-0.15;82.09;99146.11;89863;1271;94067;-74
2022/04/02 02:43:37;;;;;;;;;;;;;;;-0.16;82.06;99146.00;89856;1271;82500;-73
2022/04/02 02:45:48;;;;;;;;;;;;;;;-0.20;82.24;99144.30;89857;1271;81673;-73
2022/04/02 02:47:55;;;;;;;;;;;;;;;-0.18;82.02;99146.64;89847;1271;99028;-75
2022/04/02 02:50:06;;;;;;;;;;;;;;;-0.14;81.93;99150.83;89854;1271;89082;-74
2022/04/02 02:52:13;;;;;;;;;;;;;;;-0.10;82.01;99150.27;89849;1271;95037;-75
2022/04/02 02:54:22;;;;;;;;;;;;;;;-0.13;81.88;99153.89;89851;1271;79303;-75
2022/04/02 02:56:29;;;;;;;;;;;;;;;-0.13;81.72;99149.77;89872;1271;83159;-70
2022/04/02 02:58:36;;;;;;;;;;;;;;;-0.07;81.72;99152.88;89854;1271;99339;-70
2022/04/02 03:00:47;;;;;;;;;;;;;;;-0.06;81.61;99154.06;89862;1271;88883;-71
2022/04/02 03:02:54;;;;;;;;;;;;;;;-0.05;81.48;99156.05;89855;1271;95841;-71
2022/04/02 03:05:01;;;;;;;;;;;;;;;-0.06;81.60;99158.31;89849;1271;79950;-71
2022/04/02 03:07:08;;;;;;;;;;;;;;;-0.07;81.74;99157.67;89682;1271;246815;-69
2022/04/02 03:09:15;;;;;;;;;;;;;;;-0.09;81.66;99156.17;89861;1271;96590;-70
2022/04/02 03:11:22;;;;;;;;;;;;;;;-0.06;81.58;99157.13;89858;1271;89445;-70
2022/04/02 03:13:29;;;;;;;;;;;;;;;-0.04;81.66;99155.20;89850;1271;93695;-71
2022/04/02 03:15:36;;;;;;;;;;;;;;;-0.04;81.50;99152.27;89855;1269;80221;-74
2022/04/02 03:17:44;;;;;;;;;;;;;;;-0.03;81.44;99156.60;89870;1271;81747;-75
2022/04/02 03:19:51;;;;;;;;;;;;;;;-0.02;81.57;99153.98;89852;1271;97503;-74
2022/04/02 03:21:59;;;;;;;;;;;;;;;-0.06;81.80;99154.06;89869;1271;89358;-73
2022/04/02 03:24:07;;;;;;;;;;;;;;;-0.10;81.69;99157.00;89853;1271;93332;-72
2022/04/02 03:26:15;;;;;;;;;;;;;;;-0.11;81.56;99156.03;89850;1271;77894;-75
2022/04/02 03:28:25;;;;;;;;;;;;;;;-0.11;81.52;99155.59;89810;1274;80250;-74
2022/04/02 03:30:32;;;;;;;;;;;;;;;-0.16;81.36;99157.14;89871;1271;96635;-72
2022/04/02 03:32:39;;;;;;;;;;;;;;;-0.18;81.50;99156.69;89858;1271;88105;-73
2022/04/02 03:34:46;;;;;;;;;;;;;;;-0.24;81.47;99160.81;89867;1271;95010;-74
2022/04/02 03:36:53;;;;;;;;;;;;;;;-0.25;81.46;99159.04;89865;1271;76913;-73
2022/04/02 03:39:00;;;;;;;;;;;;;;;-0.28;81.34;99155.07;89864;1271;81074;-74
2022/04/02 03:41:07;;;;;;;;;;;;;;;-0.34;81.26;99160.45;89868;1271;97517;-73
2022/04/02 03:43:14;;;;;;;;;;;;;;;-0.37;81.48;99161.45;89867;1271;88524;-74
2022/04/02 03:45:23;;;;;;;;;;;;;;;-0.42;81.64;99159.40;89854;1271;95772;-72
2022/04/02 03:47:30;;;;;;;;;;;;;;;-0.44;81.59;99159.16;89864;1271;77255;-73
2022/04/02 03:49:37;;;;;;;;;;;;;;;-0.45;81.42;99160.49;89864;1271;81492;-74
2022/04/02 03:51:44;;;;;;;;;;;;;;;-0.45;81.41;99160.67;89865;1271;98827;-74
2022/04/02 03:53:51;;;;;;;;;;;;;;;-0.49;81.60;99162.11;89858;1271;89126;-73
2022/04/02 03:55:58;;;;;;;;;;;;;;;-0.53;81.82;99161.84;89864;1271;95394;-74
2022/04/02 03:58:05;;;;;;;;;;;;;;;-0.55;81.75;99162.88;89854;1271;77583;-71
2022/04/02 04:00:13;;;;;;;;;;;;;;;-0.57;81.52;99160.29;89870;1271;82243;-73
2022/04/02 04:02:24;;;;;;;;;;;;;;;-0.60;81.77;99162.93;89856;1271;99277;-73
2022/04/02 04:04:32;;;;;;;;;;;;;;;-0.65;81.84;99168.05;89856;1271;88989;-72
2022/04/02 04:06:39;;;;;;;;;;;;;;;-0.69;81.93;99162.63;89845;1271;94689;-71
2022/04/02 04:08:47;;;;;;;;;;;;;;;-0.71;82.03;99165.59;89829;1271;81199;-70
2022/04/02 04:10:57;;;;;;;;;;;;;;;-0.73;82.03;99165.30;89860;1271;83405;-70
2022/04/02 04:13:07;;;;;;;;;;;;;;;-0.73;82.13;99167.09;89855;1271;97746;-70
2022/04/02 04:15:18;;;;;;;;;;;;;;;-0.70;82.15;99168.55;89868;1270;86948;-70
2022/04/02 04:17:25;;;;;;;;;;;;;;;-0.65;82.08;99168.80;89846;1271;94369;-71
2022/04/02 04:19:32;;;;;;;;;;;;;;;-0.62;81.94;99171.44;89808;1272;80174;-71
2022/04/02 04:21:42;;;;;;;;;;;;;;;-0.57;82.33;99170.52;89869;1271;80174;-70
2022/04/02 04:23:53;;;;;;;;;;;;;;;-0.51;82.28;99173.83;89850;1271;99571;-71
2022/04/02 04:26:00;;;;;;;;;;;;;;;-0.51;82.29;99179.50;89856;1271;86474;-71
2022/04/02 04:28:10;;;;;;;;;;;;;;;-0.51;82.32;99171.35;89860;1271;93841;-72
2022/04/02 04:30:21;;;;;;;;;;;;;;;-0.51;82.04;99172.56;89866;1271;78709;-70
2022/04/02 04:32:31;;;;;;;;;;;;;;;-0.49;82.18;99172.70;89860;1271;81201;-71
2022/04/02 04:34:39;;;;;;;;;;;;;;;-0.46;82.12;99176.50;89858;1271;97230;-71
2022/04/02 04:36:49;;;;;;;;;;;;;;;-0.43;81.97;99180.27;89854;1271;87367;-72
2022/04/02 04:38:57;;;;;;;;;;;;;;;-0.44;82.03;99181.93;89851;1271;95226;-73
2022/04/02 04:41:04;;;;;;;;;;;;;;;-0.43;82.00;99182.93;89845;1271;79615;-72
2022/04/02 04:43:14;;;;;;;;;;;;;;;-0.44;81.95;99184.81;89848;1271;81935;-73
2022/04/02 04:45:22;;;;;;;;;;;;;;;-0.45;81.93;99187.30;89867;1271;97743;-72
2022/04/02 04:47:30;;;;;;;;;;;;;;;-0.43;81.89;99186.83;89863;1271;86698;-73
2022/04/02 04:49:40;;;;;;;;;;;;;;;-0.38;81.78;99190.48;89850;1271;95888;-72
2022/04/02 04:51:50;;;;;;;;;;;;;;;-0.41;81.86;99191.55;89856;1271;80266;-72
2022/04/02 04:53:57;;;;;;;;;;;;;;;-0.41;81.81;99189.45;89873;1271;82687;-70
2022/04/02 04:56:07;;;;;;;;;;;;;;;-0.42;81.72;99193.53;89860;1271;97427;-70
2022/04/02 04:58:14;;;;;;;;;;;;;;;-0.45;81.63;99195.13;89854;1271;88677;-71
2022/04/02 05:00:25;;;;;;;;;;;;;;;-0.49;81.74;99197.69;89863;1271;94252;-72
2022/04/02 05:02:35;;;;;;;;;;;;;;;-0.54;81.66;99198.11;89855;1271;79284;-72
2022/04/02 05:04:42;;;;;;;;;;;;;;;-0.57;81.62;99202.30;89841;1273;81350;-71
2022/04/02 05:06:50;;;;;;;;;;;;;;;-0.61;81.42;99203.36;89861;1271;99016;-71
2022/04/02 05:09:00;;;;;;;;;;;;;;;-0.64;81.45;99203.63;89857;1271;88909;-71
2022/04/02 05:11:12;;;;;;;;;;;;;;;-0.66;81.28;99205.42;89857;1271;95644;-74
2022/04/02 05:13:22;;;;;;;;;;;;;;;-0.71;81.50;99207.52;89870;1271;80252;-74
2022/04/02 05:15:30;;;;;;;;;;;;;;;-0.79;81.63;99206.76;89858;1271;81958;-71
2022/04/02 05:17:37;;;;;;;;;;;;;;;-0.80;81.74;99207.52;89850;1271;96126;-70
2022/04/02 05:19:45;;;;;;;;;;;;;;;-0.78;81.58;99207.30;89853;1271;87984;-71
2022/04/02 05:21:52;;;;;;;;;;;;;;;-0.77;81.80;99207.41;89856;1271;94767;-71
2022/04/02 05:23:59;;;;;;;;;;;;;;;-0.78;81.77;99207.33;89867;1270;78339;-71
2022/04/02 05:26:10;;;;;;;;;;;;;;;-0.74;81.90;99205.55;89852;1271;83519;-70
2022/04/02 05:28:17;;;;;;;;;;;;;;;-0.65;81.70;99210.14;89853;1271;97823;-70
2022/04/02 05:30:26;;;;;;;;;;;;;;;-0.57;81.76;99210.07;89848;1271;89378;-72
2022/04/02 05:32:33;;;;;;;;;;;;;;;-0.50;81.83;99212.99;89836;1271;95099;-73
2022/04/02 05:34:40;;;;;;;;;;;;;;;-0.47;81.78;99214.09;89851;1271;79114;-73
2022/04/02 05:36:47;;;;;;;;;;;;;;;-0.45;81.77;99212.27;89861;1271;82497;-75
2022/04/02 05:38:54;;;;;;;;;;;;;;;-0.41;81.64;99211.17;89857;1271;98153;-74
2022/04/02 05:41:02;;;;;;;;;;;;;;;-0.35;81.59;99209.91;89878;1271;88124;-74
2022/04/02 05:43:09;;;;;;;;;;;;;;;-0.34;81.48;99213.65;89851;1271;94524;-75
2022/04/02 05:45:17;;;;;;;;;;;;;;;-0.36;81.55;99215.78;89849;1271;77589;-74
2022/04/02 05:47:24;;;;;;;;;;;;;;;-0.31;81.49;99217.26;89877;1271;80334;-74
2022/04/02 05:49:31;;;;;;;;;;;;;;;-0.25;81.18;99217.20;89861;1271;99265;-74
2022/04/02 05:51:38;;;;;;;;;;;;;;;-0.28;81.46;99221.77;89862;1271;87763;-74
2022/04/02 05:53:45;;;;;;;;;;;;;;;-0.28;81.21;99223.53;89851;1271;94224;-74
2022/04/02 05:55:57;;;;;;;;;;;;;;;-0.32;81.31;99224.81;89868;1271;78549;-71
2022/04/02 05:58:05;;;;;;;;;;;;;;;-0.32;81.13;99220.51;89880;1270;79130;-70
2022/04/02 06:00:17;;;;;;;;;;;;;;;-0.28;81.09;99225.67;89866;1271;99268;-71
2022/04/02 06:02:25;;;;;;;;;;;;;;;-0.30;81.03;99230.97;89826;1272;88621;-69
2022/04/02 06:04:32;;;;;;;;;;;;;;;-0.32;81.05;99232.11;89874;1271;94580;-70
2022/04/02 06:06:42;;;;;;;;;;;;;;;-0.38;81.05;99235.95;89845;1271;77125;-75
2022/04/02 06:08:52;;;;;;;;;;;;;;;-0.39;81.00;99235.23;89888;1271;81129;-75
2022/04/02 06:10:59;;;;;;;;;;;;;;;-0.36;80.83;99235.97;89863;1271;99354;-74
2022/04/02 06:13:06;;;;;;;;;;;;;;;-0.31;80.88;99241.12;89872;1271;88292;-75
2022/04/02 06:15:15;;;;;;;;;;;;;;;-0.30;80.76;99245.44;89860;1271;95055;-77
2022/04/02 06:17:22;;;;;;;;;;;;;;;-0.30;80.99;99244.90;89863;1271;78530;-75
2022/04/02 06:19:33;;;;;;;;;;;;;;;-0.28;80.65;99245.84;89871;1271;81633;-78
2022/04/02 06:21:43;;;;;;;;;;;;;;;-0.21;80.59;99245.30;89876;1270;98672;-72
2022/04/02 06:23:51;;;;;;;;;;;;;;;-0.16;80.73;99248.98;89875;1271;88735;-71
2022/04/02 06:26:01;;;;;;;;;;;;;;;-0.14;80.52;99246.04;89804;1273;95314;-73
2022/04/02 06:28:09;;;;;;;;;;;;;;;-0.12;80.53;99248.77;89861;1271;77940;-72
2022/04/02 06:30:23;;;;;;;;;;;;;;;-0.10;80.55;99250.42;89826;1273;81705;-70
2022/04/02 06:32:32;;;;;;;;;;;;;;;-0.10;80.66;99251.61;89856;1271;98911;-78
2022/04/02 06:34:40;;;;;;;;;;;;;;;-0.08;80.39;99251.27;89817;1274;88377;-78
2022/04/02 06:36:48;;;;;;;;;;;;;;;-0.03;80.56;99254.67;89852;1271;94762;-71
2022/04/02 06:38:56;;;;;;;;;;;;;;;-0.03;80.50;99253.05;89863;1271;79341;-72
2022/04/02 06:41:04;;;;;;;;;;;;;;;0.02;80.50;99252.04;89866;1271;81396;-78
2022/04/02 06:43:14;;;;;;;;;;;;;;;0.01;80.24;99255.51;89864;1271;98886;-77
2022/04/02 06:45:24;;;;;;;;;;;;;;;0.05;80.14;99263.95;89880;1271;87895;-70
2022/04/02 06:47:33;;;;;;;;;;;;;;;0.11;80.27;99265.97;89754;1273;94445;-70
2022/04/02 06:49:40;;;;;;;;;;;;;;;0.18;80.13;99266.50;89865;1271;78215;-71
2022/04/02 06:51:53;;;;;;;;;;;;;;;0.15;80.17;99267.00;89863;1271;80505;-74
2022/04/02 06:54:00;;;;;;;;;;;;;;;0.14;80.12;99265.01;89842;1271;97270;-74
2022/04/02 06:56:08;;;;;;;;;;;;;;;0.16;80.04;99266.88;89868;1271;86848;-73
2022/04/02 06:58:23;;;;;;;;;;;;;;;0.21;80.02;99266.73;89839;1271;94167;-72
2022/04/02 07:00:30;;;;;;;;;;;;;;;0.27;80.07;99267.91;89856;1271;80060;-70
2022/04/02 07:02:40;;;;;;;;;;;;;;;0.38;79.84;99267.89;89859;1271;81648;-71
2022/04/02 07:05:06;;;;;;;;;;;;;;;0.45;79.96;99265.79;89801;1273;98108;-72
2022/04/02 07:07:14;;;;;;;;;;;;;;;0.54;79.88;99269.39;89797;1273;88016;-76
2022/04/02 07:09:22;;;;;;;;;;;;;;;0.63;79.62;99269.78;89849;1271;94830;-76
2022/04/02 07:11:29;;;;;;;;;;;;;;;0.70;79.62;99276.14;89846;1271;78405;-74
2022/04/02 07:13:42;;;;;;;;;;;;;;;0.72;79.58;99269.23;89878;1271;80174;-71
2022/04/02 07:15:53;;;;;;;;;;;;;;;0.86;79.48;99268.50;89852;1270;98197;-74
2022/04/02 07:18:09;;;;;;;;;;;;;;;0.96;79.25;99269.61;89870;1271;88630;-77
2022/04/02 07:20:18;;;;;;;;;;;;;;;0.91;79.22;99271.48;89815;1272;96532;-75
2022/04/02 07:22:27;;;;;;;;;;;;;;;0.89;79.06;99272.13;89857;1271;78581;-70
2022/04/02 07:24:38;;;;;;;;;;;;;;;0.91;78.89;99276.81;89859;1271;80677;-71
2022/04/02 07:26:47;;;;;;;;;;;;;;;0.92;78.91;99272.27;89869;1271;99688;-71
2022/04/02 07:28:59;;;;;;;;;;;;;;;0.93;78.81;99272.98;89878;1271;88659;-71
2022/04/02 07:31:07;;;;;;;;;;;;;;;0.93;78.77;99270.67;89835;1274;95274;-70
2022/04/02 07:33:14;;;;;;;;;;;;;;;0.98;78.64;99271.55;89871;1271;80066;-70
2022/04/02 07:35:24;;;;;;;;;;;;;;;0.96;78.53;99271.59;89881;1271;82122;-72
2022/04/02 07:37:42;;;;;;;;;;;;;;;0.94;78.75;99271.45;89807;1273;99392;-65
2022/04/02 07:40:03;;;;;;;;;;;;;;;0.90;78.51;99270.52;89859;1271;89393;-71
2022/04/02 07:42:20;;;;;;;;;;;;;;;0.97;78.28;99273.56;89837;1274;94472;-74
2022/04/02 07:44:43;;;;;;;;;;;;;;;1.07;78.44;99276.46;89843;1271;79560;-74
2022/04/02 07:46:53;;;;;;;;;;;;;;;1.11;78.29;99281.70;89866;1271;82127;-72
2022/04/02 07:49:03;;;;;;;;;;;;;;;1.16;78.11;99277.27;89873;1271;97120;-73
2022/04/02 07:51:15;;;;;;;;;;;;;;;1.16;77.86;99280.14;89856;1272;87838;-73
2022/04/02 07:53:29;;;;;;;;;;;;;;;1.13;77.82;99282.66;89858;1271;95047;-74
2022/04/02 07:55:38;;;;;;;;;;;;;;;1.04;78.06;99284.03;89844;1271;77803;-71
2022/04/02 07:57:47;;;;;;;;;;;;;;;1.09;77.92;99284.05;89876;1271;81167;-73
2022/04/02 08:00:03;;;;;;;;;;;;;;;1.22;77.98;99287.42;89860;1271;98360;-71
2022/04/02 08:02:40;;;;;;;;;;;;;;;1.30;77.92;99286.00;89758;1271;88075;-70
2022/04/02 08:04:52;;;;;;;;;;;;;;;1.32;77.72;99288.17;89843;1271;94719;-72
2022/04/02 08:07:02;;;;;;;;;;;;;;;1.37;77.60;99288.90;89844;1271;79932;-72
2022/04/02 08:09:10;;;;;;;;;;;;;;;1.46;77.60;99293.14;89877;1271;80459;-72
2022/04/02 08:11:23;;;;;;;;;;;;;;;1.54;77.48;99294.61;89863;1271;98572;-71
2022/04/02 08:13:35;;;;;;;;;;;;;;;1.58;77.41;99295.27;89820;1271;89851;-75
2022/04/02 08:15:46;;;;;;;;;;;;;;;1.64;77.30;99294.75;89858;1271;92520;-76
2022/04/02 08:18:02;;;;;;;;;;;;;;;1.64;77.47;99297.06;89819;1271;80189;-77
2022/04/02 08:20:11;;;;;;;;;;;;;;;1.80;77.25;99305.17;89868;1271;81071;-78
2022/04/02 08:22:18;;;;;;;;;;;;;;;1.92;77.03;99307.94;89874;1271;97109;-75
2022/04/02 08:24:28;;;;;;;;;;;;;;;2.01;76.88;99304.91;89877;1271;87695;-75
2022/04/02 08:26:48;;;;;;;;;;;;;;;2.01;76.80;99310.08;89839;1271;94510;-71
2022/04/02 08:29:11;;;;;;;;;;;;;;;2.03;76.58;99310.55;89858;1271;79307;-75
2022/04/02 08:31:24;;;;;;;;;;;;;;;2.06;76.38;99310.36;89874;1271;81789;-71
2022/04/02 08:33:50;;;;;;;;;;;;;;;2.09;76.27;99311.11;89861;1271;97911;-76
2022/04/02 08:36:03;;;;;;;;;;;;;;;2.10;76.35;99309.96;89850;1271;89318;-66
2022/04/02 08:38:28;;;;;;;;;;;;;;;2.28;76.18;99307.48;89855;1271;95612;-74
2022/04/02 08:40:50;;;;;;;;;;;;;;;2.33;75.93;99311.23;89846;1271;79352;-70
2022/04/02 08:43:24;;;;;;;;;;;;;;;2.24;75.81;99314.11;89861;1271;82581;-74
2022/04/02 08:45:34;;;;;;;;;;;;;;;2.28;75.75;99314.55;89864;1271;97004;-66
2022/04/02 08:48:25;;;;;;;;;;;;;;;2.40;75.67;99317.23;89823;1272;90690;-73
2022/04/02 08:50:34;;;;;;;;;;;;;;;2.51;75.46;99318.66;89842;1271;96199;-68
2022/04/02 08:52:52;;;;;;;;;;;;;;;2.55;75.35;99317.56;89853;1271;78217;-72
2022/04/02 08:55:14;;;;;;;;;;;;;;;2.61;75.13;99323.05;89870;1269;82107;-71
2022/04/02 08:57:27;;;;;;;;;;;;;;;2.53;74.88;99323.98;89851;1271;98293;-73
2022/04/02 08:59:40;;;;;;;;;;;;;;;2.57;74.88;99326.16;89855;1271;89403;-74
2022/04/02 09:01:59;;;;;;;;;;;;;;;2.67;74.76;99329.30;89843;1271;94586;-73
2022/04/02 09:04:38;;;;;;;;;;;;;;;2.72;74.79;99333.80;89846;1271;77070;-72
2022/04/02 09:07:26;;;;;;;;;;;;;;;2.82;74.66;99334.08;89865;1271;81682;-73
2022/04/02 09:09:48;;;;;;;;;;;;;;;2.92;74.62;99328.91;89861;1271;99335;-71
2022/04/02 09:12:23;;;;;;;;;;;;;;;3.02;74.60;99329.75;89861;1271;89137;-74
2022/04/02 09:14:55;;;;;;;;;;;;;;;3.16;74.22;99335.33;89845;1271;94377;-72
2022/04/02 09:17:15;;;;;;;;;;;;;;;3.20;74.08;99333.70;89856;1271;77843;-76
2022/04/02 09:19:29;;;;;;;;;;;;;;;3.30;73.86;99332.89;89864;1271;82819;-69
2022/04/02 09:21:45;;;;;;;;;;;;;;;3.35;73.72;99332.75;89860;1271;99108;-67
2022/04/02 09:24:00;;;;;;;;;;;;;;;3.40;73.53;99332.16;89853;1271;89394;-67
2022/04/02 09:26:50;;;;;;;;;;;;;;;3.36;73.52;99333.27;89858;1271;96102;-77
2022/04/02 09:29:13;;;;;;;;;;;;;;;3.39;73.49;99332.44;89621;1272;77754;-76
2022/04/02 09:31:47;;;;;;;;;;;;;;;3.29;73.49;99334.42;89870;1271;82114;-76
2022/04/02 09:34:40;;;;;;;;;;;;;;;3.28;73.48;99339.23;89875;1271;96469;-77
2022/04/02 09:36:59;;;;;;;;;;;;;;;3.37;73.38;99338.31;89848;1271;87103;-77
2022/04/02 09:39:15;;;;;;;;;;;;;;;3.45;73.06;99340.63;89838;1270;95503;-76
2022/04/02 09:41:40;;;;;;;;;;;;;;;3.56;72.86;99332.64;89854;1271;80668;-73
2022/04/02 09:43:57;;;;;;;;;;;;;;;3.65;72.73;99332.77;89883;1271;81642;-70
2022/04/02 09:46:22;;;;;;;;;;;;;;;3.85;72.64;99333.69;89846;1271;99692;-73
2022/04/02 09:48:35;;;;;;;;;;;;;;;3.99;72.67;99333.02;89852;1271;88426;-71
2022/04/02 09:50:42;;;;;;;;;;;;;;;4.09;72.59;99333.72;89829;1271;95184;-73
2022/04/02 09:52:55;;;;;;;;;;;;;;;4.30;72.44;99332.04;89837;1271;76619;-73
2022/04/02 09:55:08;;;;;;;;;;;;;;;4.41;71.93;99337.48;89864;1271;81997;-73
2022/04/02 09:57:27;;;;;;;;;;;;;;;4.53;71.82;99335.60;89859;1271;97457;-76
2022/04/02 09:59:57;;;;;;;;;;;;;;;4.56;71.53;99340.08;89864;1271;89147;-74
2022/04/02 10:02:14;;;;;;;;;;;;;;;4.57;71.40;99341.05;89861;1271;93284;-75
2022/04/02 10:04:41;;;;;;;;;;;;;;;4.61;71.04;99338.41;89844;1271;79083;-74
2022/04/02 10:06:56;;;;;;;;;;;;;;;4.60;70.78;99341.23;89879;1271;81646;-75
2022/04/02 10:09:11;;;;;;;;;;;;;;;4.67;70.95;99337.90;89860;1271;97613;-74
2022/04/02 10:11:25;;;;;;;;;;;;;;;4.84;70.85;99339.98;89870;1271;88531;-74
2022/04/02 10:13:35;;;;;;;;;;;;;;;5.02;70.63;99338.73;89857;1271;95888;-74
2022/04/02 10:15:43;;;;;;;;;;;;;;;5.16;70.40;99339.38;89827;1272;79394;-71
2022/04/02 10:17:54;;;;;;;;;;;;;;;5.24;70.12;99335.55;89867;1271;81534;-70
2022/04/02 10:20:01;;;;;;;;;;;;;;;5.25;70.02;99338.84;89868;1271;96327;-72
2022/04/02 10:22:10;;;;;;;;;;;;;;;5.32;69.73;99335.46;89864;1271;88794;-76
2022/04/02 10:24:23;;;;;;;;;;;;;;;5.38;69.50;99338.69;89846;1271;95262;-77
2022/04/02 10:26:34;;;;;;;;;;;;;;;5.37;69.51;99335.53;89844;1271;77977;-74
2022/04/02 10:28:52;;;;;;;;;;;;;;;5.38;69.47;99334.77;89866;1271;81881;-75
2022/04/02 10:31:02;;;;;;;;;;;;;;;5.50;69.39;99333.70;89861;1271;99236;-73
2022/04/02 10:33:30;;;;;;;;;;;;;;;5.68;69.40;99334.17;89874;1271;85533;-72
2022/04/02 10:35:39;;;;;;;;;;;;;;;5.71;69.02;99335.59;89850;1271;93684;-72
2022/04/02 10:38:01;;;;;;;;;;;;;;;5.79;68.89;99337.89;89821;1273;77842;-74
2022/04/02 10:40:13;;;;;;;;;;;;;;;5.94;68.75;99337.10;89857;1271;81233;-73
2022/04/02 10:42:26;;;;;;;;;;;;;;;5.96;68.52;99336.52;89864;1271;96141;-68
2022/04/02 10:44:41;;;;;;;;;;;;;;;6.06;68.11;99335.44;89854;1271;87149;-71
2022/04/02 10:46:54;;;;;;;;;;;;;;;6.16;67.96;99335.83;89834;1271;93996;-72
2022/04/02 10:49:05;;;;;;;;;;;;;;;6.31;67.84;99337.91;89830;1271;79151;-73
2022/04/02 10:51:15;;;;;;;;;;;;;;;6.34;67.49;99337.98;89871;1271;81200;-73
2022/04/02 10:53:26;;;;;;;;;;;;;;;6.25;67.35;99340.96;89866;1271;97901;-68
2022/04/02 10:55:41;;;;;;;;;;;;;;;6.28;67.00;99342.16;89754;1273;89242;-74
2022/04/02 10:57:48;;;;;;;;;;;;;;;6.32;66.87;99343.16;89848;1271;94125;-74
2022/04/02 11:00:01;;;;;;;;;;;;;;;6.38;66.75;99342.13;89833;1271;79147;-73
2022/04/02 11:02:20;;;;;;;;;;;;;;;6.38;66.63;99338.41;89810;1273;84272;-73
2022/04/02 11:04:32;;;;;;;;;;;;;;;6.63;66.49;99336.29;89806;1272;96458;-72
2022/04/02 11:06:51;;;;;;;;;;;;;;;6.82;66.14;99339.02;89656;1271;252171;-72
2022/04/02 11:08:58;;;;;;;;;;;;;;;6.84;65.76;99338.95;89849;1271;95228;-74
2022/04/02 11:11:18;;;;;;;;;;;;;;;6.84;65.62;99341.43;89845;1271;79133;-73
2022/04/02 11:13:33;;;;;;;;;;;;;;;6.87;65.13;99341.16;89864;1271;83005;-73
2022/04/02 11:15:42;;;;;;;;;;;;;;;6.82;65.21;99341.45;89861;1271;99080;-73
2022/04/02 11:17:52;;;;;;;;;;;;;;;6.86;65.16;99342.44;89871;1271;88995;-73
2022/04/02 11:20:08;;;;;;;;;;;;;;;6.87;64.66;99338.91;89861;1271;94828;-73
2022/04/02 11:22:36;;;;;;;;;;;;;;;6.94;64.67;99337.89;89852;1271;76298;-73
2022/04/02 11:24:54;;;;;;;;;;;;;;;6.96;64.37;99336.75;89866;1271;80679;-74
2022/04/02 11:27:04;;;;;;;;;;;;;;;7.13;64.30;99332.79;89862;1271;98516;-72
2022/04/02 11:29:14;;;;;;;;;;;;;;;7.13;63.99;99336.67;89854;1271;87788;-72
2022/04/02 11:31:29;;;;;;;;;;;;;;;7.02;63.48;99336.14;89856;1271;93189;-72